createdAt,value
2019-02-09T00:02:08.922Z,99815.61
2019-02-09T00:04:40.465Z,99815.61
2019-02-09T00:07:11.869Z,99831.64
2019-02-09T00:09:43.454Z,99829.09
2019-02-09T00:12:15.220Z,99829.09
2019-02-09T00:14:46.845Z,99831.20
2019-02-09T00:17:18.450Z,99830.34
2019-02-09T00:19:50.562Z,99829.75
2019-02-09T00:22:21.999Z,99829.75
2019-02-09T00:24:53.748Z,99834.84
2019-02-09T00:27:25.530Z,99833.04
2019-02-09T00:29:56.897Z,99829.95
2019-02-09T00:32:28.487Z,99836.09
2019-02-09T00:35:00.269Z,99847.50
2019-02-09T00:37:31.932Z,99846.30
2019-02-09T00:40:03.542Z,99848.02
2019-02-09T00:42:35.067Z,99854.20
2019-02-09T00:45:07.621Z,99854.20
2019-02-09T00:47:39.381Z,99854.20
2019-02-09T00:50:11.015Z,99854.22
2019-02-09T00:52:42.910Z,99874.00
2019-02-09T00:55:14.726Z,99870.07
2019-02-09T00:57:46.394Z,99870.07
2019-02-09T01:00:23.105Z,99873.41
2019-02-09T01:02:55.083Z,99871.91
2019-02-09T01:05:35.296Z,99871.91
2019-02-09T01:08:07.304Z,99889.27
2019-02-09T01:10:39.028Z,99889.27
2019-02-09T01:13:10.819Z,99891.23
2019-02-09T01:15:42.127Z,99900.91
2019-02-09T01:18:13.679Z,99901.24
2019-02-09T01:20:45.020Z,99905.42
2019-02-09T01:23:16.328Z,99905.42
2019-02-09T01:25:48.020Z,99912.09
2019-02-09T01:28:19.555Z,99905.44
2019-02-09T01:30:51.155Z,99905.44
2019-02-09T01:33:22.764Z,99911.57
2019-02-09T01:35:54.484Z,99914.73
2019-02-09T01:38:26.215Z,99923.61
2019-02-09T01:40:59.483Z,99943.70
2019-02-09T01:43:30.867Z,99943.70
2019-02-09T01:46:02.529Z,99970.04
2019-02-09T01:48:34.259Z,99970.04
2019-02-09T01:51:06.515Z,99970.93
2019-02-09T01:53:38.086Z,99972.60
2019-02-09T01:56:10.891Z,99972.60
2019-02-09T01:58:42.381Z,99970.54
2019-02-09T02:01:13.838Z,99980.90
2019-02-09T02:03:45.101Z,99982.60
2019-02-09T02:06:16.620Z,99982.60
2019-02-09T02:08:48.072Z,99990.22
2019-02-09T02:11:19.521Z,99990.22
2019-02-09T02:13:51.673Z,99989.45
2019-02-09T02:16:23.120Z,99996.78
2019-02-09T02:18:55.498Z,99996.78
2019-02-09T02:21:27.273Z,99995.20
2019-02-09T02:23:58.947Z,99995.20
2019-02-09T02:26:30.906Z,100006.92
2019-02-09T02:29:02.682Z,100006.92
2019-02-09T02:31:34.323Z,100030.66
2019-02-09T02:34:06.110Z,100030.66
2019-02-09T02:36:37.447Z,100046.11
2019-02-09T02:39:12.478Z,100053.81
2019-02-09T02:41:43.963Z,100050.72
2019-02-09T02:44:15.566Z,100054.34
2019-02-09T02:46:47.501Z,100063.83
2019-02-09T02:49:19.088Z,100059.97
2019-02-09T02:51:50.979Z,100059.97
2019-02-09T02:54:22.503Z,100066.47
2019-02-09T02:56:54.182Z,100078.75
2019-02-09T02:59:26.051Z,100078.75
2019-02-09T03:01:57.553Z,100087.64
2019-02-09T03:04:29.079Z,100101.85
2019-02-09T03:07:00.836Z,100105.70
2019-02-09T03:09:32.768Z,100105.70
2019-02-09T03:12:04.249Z,100102.57
2019-02-09T03:14:35.920Z,100112.41
2019-02-09T03:17:07.113Z,100124.99
2019-02-09T03:19:38.676Z,100122.94
2019-02-09T03:22:10.026Z,100122.94
2019-02-09T03:24:41.577Z,100136.77
2019-02-09T03:27:12.936Z,100132.20
2019-02-09T03:29:44.776Z,100131.48
2019-02-09T03:32:16.074Z,100136.20
2019-02-09T03:34:48.168Z,100144.88
2019-02-09T03:37:19.495Z,100144.88
2019-02-09T03:39:51.054Z,100157.14
2019-02-09T03:42:22.810Z,100153.92
2019-02-09T03:44:54.211Z,100160.70
2019-02-09T03:47:26.838Z,100164.98
2019-02-09T03:49:58.228Z,100160.19
2019-02-09T03:52:29.803Z,100160.19
2019-02-09T03:55:02.010Z,100174.09
2019-02-09T03:57:33.211Z,100182.57
2019-02-09T04:00:06.719Z,100185.66
2019-02-09T04:02:38.736Z,100183.61
2019-02-09T04:05:11.350Z,100194.91
2019-02-09T04:07:42.932Z,100194.91
2019-02-09T04:10:15.896Z,100191.36
2019-02-09T04:12:47.727Z,100184.59
2019-02-09T04:15:21.637Z,100184.59
2019-02-09T04:17:53.580Z,100189.47
2019-02-09T04:20:25.973Z,100193.34
2019-02-09T04:22:58.015Z,100201.20
2019-02-09T04:25:29.354Z,100201.20
2019-02-09T04:28:00.965Z,100205.59
2019-02-09T04:30:33.334Z,100199.57
2019-02-09T04:33:04.633Z,100199.57
2019-02-09T04:35:36.340Z,100203.91
2019-02-09T04:38:07.401Z,100210.19
2019-02-09T04:40:39.085Z,100213.40
2019-02-09T04:43:10.754Z,100214.49
2019-02-09T04:45:42.949Z,100221.09
2019-02-09T04:48:14.746Z,100221.09
2019-02-09T04:50:46.232Z,100223.48
2019-02-09T04:53:18.814Z,100213.78
2019-02-09T04:55:51.575Z,100220.21
2019-02-09T04:58:23.222Z,100220.21
2019-02-09T05:00:55.165Z,100222.18
2019-02-09T05:04:44.173Z,100223.27
2019-02-09T05:07:35.999Z,100223.27
2019-02-09T05:14:21.773Z,100228.03
2019-02-09T05:17:44.017Z,100218.17
2019-02-09T05:24:16.502Z,100215.34
2019-02-09T05:27:39.096Z,100203.70
2019-02-09T05:31:22.457Z,100207.16
2019-02-09T05:34:55.715Z,100207.16
2019-02-09T05:42:10.400Z,100209.94
2019-02-09T05:49:04.708Z,100198.04
2019-02-09T05:52:49.262Z,100187.41
2019-02-09T05:56:33.739Z,100186.25
2019-02-09T06:00:05.074Z,100189.06
2019-02-09T06:07:10.749Z,100187.88
2019-02-09T06:11:40.981Z,100187.88
2019-02-09T06:14:33.688Z,100184.95
2019-02-09T06:23:04.053Z,100156.77
2019-02-09T06:26:20.860Z,100169.45
2019-02-09T06:32:58.542Z,100161.12
2019-02-09T06:44:04.204Z,100134.73
2019-02-09T06:47:09.264Z,100131.61
2019-02-09T06:50:20.793Z,100129.57
2019-02-09T06:53:48.231Z,100129.57
2019-02-09T07:01:40.076Z,100116.27
2019-02-09T07:04:49.753Z,100109.53
2019-02-09T07:07:40.971Z,100095.71
2019-02-09T07:14:55.710Z,100087.80
2019-02-09T07:17:51.536Z,100087.80
2019-02-09T07:21:16.719Z,100079.80
2019-02-09T07:25:13.615Z,100062.27
2019-02-09T07:27:53.523Z,100046.05
2019-02-09T07:34:49.702Z,100034.23
2019-02-09T07:38:18.985Z,100031.92
2019-02-09T07:45:10.668Z,100011.36
2019-02-09T07:48:31.856Z,100011.36
2019-02-09T07:52:07.864Z,100017.25
2019-02-09T07:55:47.865Z,100012.24
2019-02-09T07:58:33.938Z,100007.83
2019-02-09T08:02:11.860Z,100002.86
2019-02-09T08:05:55.328Z,100001.02
2019-02-09T08:09:12.634Z,100001.02
2019-02-09T08:19:47.325Z,99985.20
2019-02-09T08:27:07.974Z,99985.58
2019-02-09T08:29:43.138Z,99981.66
2019-02-09T08:32:15.369Z,99974.88
2019-02-09T08:34:46.943Z,99974.64
2019-02-09T08:37:18.418Z,99970.75
2019-02-09T08:39:50.422Z,99970.75
2019-02-09T08:42:22.170Z,99975.80
2019-02-09T08:44:53.779Z,99973.03
2019-02-09T08:47:25.359Z,99973.03
2019-02-09T08:49:57.239Z,99977.89
2019-02-09T08:52:28.970Z,99967.16
2019-02-09T08:55:00.525Z,99972.23
2019-02-09T08:57:32.635Z,99972.23
2019-02-09T09:00:05.975Z,99966.48
2019-02-09T09:02:38.537Z,99966.42
2019-02-09T09:05:11.506Z,99964.14
2019-02-09T09:07:43.116Z,99964.14
2019-02-09T09:10:16.521Z,99961.56
2019-02-09T09:12:47.769Z,99959.46
2019-02-09T09:15:22.771Z,99959.02
2019-02-09T09:17:54.661Z,99959.77
2019-02-09T09:20:28.795Z,99948.09
2019-02-09T09:23:00.968Z,99948.09
2019-02-09T09:25:33.079Z,99949.80
2019-02-09T09:28:05.378Z,99943.83
2019-02-09T09:30:37.109Z,99943.83
2019-02-09T09:33:09.208Z,99945.36
2019-02-09T09:35:41.832Z,99945.60
2019-02-09T09:38:13.886Z,99945.60
2019-02-09T09:40:45.632Z,99934.16
2019-02-09T09:43:17.395Z,99934.16
2019-02-09T09:45:49.806Z,99938.38
2019-02-09T09:48:21.784Z,99938.32
2019-02-09T09:50:53.491Z,99939.00
2019-02-09T09:53:25.307Z,99943.84
2019-02-09T09:55:58.179Z,99943.84
2019-02-09T09:58:30.001Z,99946.80
2019-02-09T10:01:01.791Z,99940.23
2019-02-09T10:03:33.563Z,99939.90
2019-02-09T10:06:05.712Z,99942.69
2019-02-09T10:08:37.924Z,99942.69
2019-02-09T10:11:09.680Z,99946.50
2019-02-09T10:13:41.531Z,99945.02
2019-02-09T10:16:13.350Z,99951.97
2019-02-09T10:18:45.201Z,99946.72
2019-02-09T10:21:16.863Z,99947.24
2019-02-09T10:23:48.702Z,99947.24
2019-02-09T10:26:20.686Z,99946.96
2019-02-09T10:28:52.682Z,99943.03
2019-02-09T10:31:25.835Z,99947.46
2019-02-09T10:33:57.923Z,99947.46
2019-02-09T10:36:31.051Z,99943.39
2019-02-09T10:39:02.927Z,99943.39
2019-02-09T10:41:36.592Z,99943.31
2019-02-09T10:44:08.547Z,99936.43
2019-02-09T10:46:40.067Z,99936.43
2019-02-09T10:49:12.098Z,99937.05
2019-02-09T10:51:43.897Z,99943.25
2019-02-09T10:54:15.842Z,99941.79
2019-02-09T10:56:47.324Z,99941.79
2019-02-09T10:59:19.389Z,99947.59
2019-02-09T11:01:51.183Z,99946.27
2019-02-09T11:04:22.718Z,99946.27
2019-02-09T11:06:53.925Z,99950.37
2019-02-09T11:09:27.252Z,99941.22
2019-02-09T11:11:59.114Z,99938.20
2019-02-09T11:14:30.831Z,99941.38
2019-02-09T11:17:02.368Z,99941.38
2019-02-09T11:19:33.847Z,99944.84
2019-02-09T11:22:05.497Z,99946.38
2019-02-09T11:24:37.048Z,99949.29
2019-02-09T11:27:08.810Z,99948.84
2019-02-09T11:29:40.526Z,99948.84
2019-02-09T11:32:12.148Z,99947.80
2019-02-09T11:34:44.870Z,99952.88
2019-02-09T11:37:16.592Z,99957.76
2019-02-09T11:39:48.699Z,99956.75
2019-02-09T11:42:20.620Z,99956.75
2019-02-09T11:45:10.814Z,99952.19
2019-02-09T11:47:42.338Z,99963.11
2019-02-09T11:50:14.603Z,99963.11
2019-02-09T11:52:47.121Z,99958.55
2019-02-09T11:55:18.910Z,99958.55
2019-02-09T11:57:50.781Z,99959.46
2019-02-09T12:00:24.373Z,99963.11
2019-02-09T12:03:02.715Z,99963.11
2019-02-09T12:05:30.524Z,99968.10
2019-02-09T12:08:02.743Z,99964.66
2019-02-09T12:10:34.806Z,99964.66
2019-02-09T12:13:07.229Z,99969.28
2019-02-09T12:15:39.328Z,99975.03
2019-02-09T12:18:11.419Z,99979.04
2019-02-09T12:20:43.050Z,99979.04
2019-02-09T12:23:16.032Z,99982.59
2019-02-09T12:25:47.465Z,99976.30
2019-02-09T12:28:19.057Z,99986.58
2019-02-09T12:30:50.890Z,99989.50
2019-02-09T12:33:23.504Z,99989.50
2019-02-09T12:35:55.112Z,100000.10
2019-02-09T12:38:26.635Z,100002.05
2019-02-09T12:40:57.624Z,100007.63
2019-02-09T12:43:29.280Z,100007.63
2019-02-09T12:46:00.911Z,100003.70
2019-02-09T12:48:32.451Z,100001.27
2019-02-09T12:51:04.216Z,100001.27
2019-02-09T12:53:35.922Z,100009.39
2019-02-09T12:56:06.979Z,100011.48
2019-02-09T12:58:39.577Z,100011.48
2019-02-09T13:01:10.607Z,100016.09
2019-02-09T13:03:42.552Z,100023.42
2019-02-09T13:06:13.871Z,100027.16
2019-02-09T13:08:47.090Z,100027.16
2019-02-09T13:11:18.426Z,100036.52
2019-02-09T13:13:50.267Z,100045.61
2019-02-09T13:16:21.734Z,100045.60
2019-02-09T13:18:53.420Z,100045.60
2019-02-09T13:21:25.154Z,100049.06
2019-02-09T13:23:56.505Z,100049.06
2019-02-09T13:26:28.493Z,100053.72
2019-02-09T13:29:00.021Z,100059.62
2019-02-09T13:31:31.707Z,100059.62
2019-02-09T13:34:03.185Z,100067.78
2019-02-09T13:36:34.733Z,100067.78
2019-02-09T13:39:08.686Z,100076.84
2019-02-09T13:41:40.012Z,100076.84
2019-02-09T13:44:11.545Z,100085.51
2019-02-09T13:46:42.976Z,100086.81
2019-02-09T13:49:14.912Z,100086.81
2019-02-09T13:51:46.746Z,100088.72
2019-02-09T13:54:18.821Z,100093.08
2019-02-09T13:56:50.649Z,100092.83
2019-02-09T13:59:23.199Z,100092.83
2019-02-09T14:01:54.750Z,100100.08
2019-02-09T14:04:26.286Z,100104.38
2019-02-09T14:06:57.662Z,100104.38
2019-02-09T14:09:29.839Z,100110.86
2019-02-09T14:12:01.335Z,100110.53
2019-02-09T14:14:33.134Z,100110.53
2019-02-09T14:17:08.544Z,100117.30
2019-02-09T14:19:41.640Z,100117.30
2019-02-09T14:22:12.982Z,100121.77
2019-02-09T14:24:44.446Z,100121.77
2019-02-09T14:27:17.610Z,100121.78
2019-02-09T14:29:51.115Z,100123.26
2019-02-09T14:32:24.479Z,100131.75
2019-02-09T14:34:56.069Z,100129.38
2019-02-09T14:37:27.533Z,100129.38
2019-02-09T14:39:59.302Z,100134.62
2019-02-09T14:42:30.642Z,100137.48
2019-02-09T14:45:02.018Z,100137.48
2019-02-09T14:47:33.481Z,100146.16
2019-02-09T14:50:11.109Z,100145.36
2019-02-09T14:52:39.166Z,100142.88
2019-02-09T14:55:12.404Z,100142.43
2019-02-09T14:57:43.905Z,100142.43
2019-02-09T15:00:19.228Z,100153.44
2019-02-09T15:02:53.891Z,100159.77
2019-02-09T15:05:24.519Z,100160.19
2019-02-09T15:07:56.294Z,100160.19
2019-02-09T15:10:28.154Z,100163.75
2019-02-09T15:12:59.620Z,100165.98
2019-02-09T15:15:33.499Z,100165.67
2019-02-09T15:18:06.158Z,100167.21
2019-02-09T15:20:40.130Z,100167.21
2019-02-09T15:23:11.499Z,100172.98
2019-02-09T15:25:42.981Z,100177.08
2019-02-09T15:28:14.371Z,100178.68
2019-02-09T15:30:46.138Z,100178.68
2019-02-09T15:33:17.619Z,100177.13
2019-02-09T15:35:49.403Z,100177.13
2019-02-09T15:38:21.194Z,100177.94
2019-02-09T15:40:53.028Z,100177.94
2019-02-09T15:43:24.557Z,100178.30
2019-02-09T15:45:56.692Z,100178.30
2019-02-09T15:48:28.247Z,100192.09
2019-02-09T15:51:00.572Z,100192.09
2019-02-09T15:53:32.012Z,100195.12
2019-02-09T15:56:03.722Z,100201.77
2019-02-09T15:58:35.046Z,100201.77
2019-02-09T16:01:07.261Z,100200.37
2019-02-09T16:03:38.823Z,100200.37
2019-02-09T16:06:10.791Z,100205.09
2019-02-09T16:08:42.412Z,100212.55
2019-02-09T16:11:13.845Z,100200.65
2019-02-09T16:13:45.990Z,100206.91
2019-02-09T16:16:17.695Z,100206.91
2019-02-09T16:18:48.936Z,100204.62
2019-02-09T16:21:20.425Z,100209.09
2019-02-09T16:23:51.446Z,100211.88
2019-02-09T16:26:22.946Z,100211.88
2019-02-09T16:28:54.729Z,100212.52
2019-02-09T16:31:26.484Z,100209.78
2019-02-09T16:33:58.260Z,100213.77
2019-02-09T16:36:40.523Z,100217.75
2019-02-09T16:39:14.629Z,100217.75
2019-02-09T16:41:47.381Z,100221.77
2019-02-09T16:44:18.766Z,100227.13
2019-02-09T16:46:52.064Z,100228.00
2019-02-09T16:49:27.395Z,100226.70
2019-02-09T16:52:01.782Z,100230.44
2019-02-09T16:54:36.012Z,100227.98
2019-02-09T16:57:08.523Z,100227.98
2019-02-09T16:59:40.140Z,100222.91
2019-02-09T17:02:12.634Z,100224.77
2019-02-09T17:04:44.540Z,100220.24
2019-02-09T17:07:16.336Z,100219.06
2019-02-09T17:09:48.148Z,100219.06
2019-02-09T17:12:19.940Z,100220.11
2019-02-09T17:14:52.222Z,100206.23
2019-02-09T17:17:23.721Z,100212.89
2019-02-09T17:19:55.252Z,100205.16
2019-02-09T17:22:26.558Z,100199.97
2019-02-09T17:24:58.619Z,100197.49
2019-02-09T17:27:30.104Z,100197.49
2019-02-09T17:30:01.894Z,100192.11
2019-02-09T17:32:35.350Z,100181.38
2019-02-09T17:35:07.572Z,100183.08
2019-02-09T17:37:39.076Z,100182.31
2019-02-09T17:40:13.403Z,100181.34
2019-02-09T17:42:48.444Z,100182.59
2019-02-09T17:45:21.601Z,100182.59
2019-02-09T17:47:52.969Z,100182.91
2019-02-09T17:50:24.797Z,100178.23
2019-02-09T17:52:56.069Z,100174.47
2019-02-09T17:55:27.934Z,100174.47
2019-02-09T17:57:59.285Z,100176.98
2019-02-09T18:00:45.570Z,100176.98
2019-02-09T18:03:17.251Z,100169.08
2019-02-09T18:05:48.909Z,100172.98
2019-02-09T18:08:20.326Z,100180.48
2019-02-09T18:10:51.776Z,100174.39
2019-02-09T18:13:23.687Z,100175.53
2019-02-09T18:15:55.545Z,100155.65
2019-02-09T18:18:27.002Z,100155.65
2019-02-09T18:20:58.286Z,100163.02
2019-02-09T18:23:29.648Z,100151.52
2019-02-09T18:26:01.025Z,100151.19
2019-02-09T18:28:32.605Z,100147.91
2019-02-09T18:31:03.999Z,100149.39
2019-02-09T18:33:35.558Z,100149.39
2019-02-09T18:36:07.332Z,100145.75
2019-02-09T18:38:39.027Z,100145.75
2019-02-09T18:41:10.440Z,100136.77
2019-02-09T18:43:42.483Z,100143.42
2019-02-09T18:46:14.120Z,100143.42
2019-02-09T18:48:45.610Z,100143.45
2019-02-09T18:51:17.188Z,100150.33
2019-02-09T18:53:48.970Z,100150.33
2019-02-09T18:56:20.680Z,100144.53
2019-02-09T18:58:52.345Z,100138.93
2019-02-09T19:01:24.379Z,100137.22
2019-02-09T19:03:57.602Z,100128.84
2019-02-09T19:06:29.628Z,100143.31
2019-02-09T19:09:01.263Z,100143.31
2019-02-09T19:11:34.489Z,100134.63
2019-02-09T19:14:06.259Z,100144.61
2019-02-09T19:16:37.673Z,100144.84
2019-02-09T19:19:09.614Z,100146.14
2019-02-09T19:21:41.125Z,100137.06
2019-02-09T19:24:12.985Z,100132.86
2019-02-09T19:26:46.800Z,100130.91
2019-02-09T19:29:18.754Z,100130.86
2019-02-09T19:31:50.049Z,100132.52
2019-02-09T19:34:21.388Z,100132.52
2019-02-09T19:36:53.019Z,100139.44
2019-02-09T19:39:24.299Z,100144.45
2019-02-09T19:41:55.642Z,100139.63
2019-02-09T19:44:27.057Z,100139.63
2019-02-09T19:46:58.706Z,100140.90
2019-02-09T19:49:30.207Z,100140.90
2019-02-09T19:52:01.904Z,100138.46
2019-02-09T19:54:33.634Z,100142.41
2019-02-09T19:57:04.982Z,100142.41
2019-02-09T19:59:36.463Z,100140.33
2019-02-09T20:02:07.978Z,100133.14
2019-02-09T20:04:39.666Z,100133.14
2019-02-09T20:07:11.606Z,100136.49
2019-02-09T20:09:43.020Z,100134.31
2019-02-09T20:12:14.732Z,100130.88
2019-02-09T20:14:46.258Z,100127.37
2019-02-09T20:17:19.579Z,100127.37
2019-02-09T20:19:52.018Z,100128.51
2019-02-09T20:22:24.415Z,100128.51
2019-02-09T20:24:56.344Z,100113.95
2019-02-09T20:27:30.895Z,100113.95
2019-02-09T20:30:03.076Z,100111.63
2019-02-09T20:32:34.741Z,100108.61
2019-02-09T20:35:07.816Z,100102.28
2019-02-09T20:37:39.301Z,100102.28
2019-02-09T20:40:16.723Z,100105.03
2019-02-09T20:42:47.901Z,100098.73
2019-02-09T20:45:19.560Z,100096.53
2019-02-09T20:47:51.419Z,100096.53
2019-02-09T20:50:24.097Z,100095.00
2019-02-09T20:52:55.747Z,100094.16
2019-02-09T20:55:27.509Z,100091.28
2019-02-09T20:57:59.159Z,100091.28
2019-02-09T21:00:30.900Z,100087.04
2019-02-09T21:03:02.388Z,100074.27
2019-02-09T21:05:36.437Z,100076.48
2019-02-09T21:08:08.838Z,100080.00
2019-02-09T21:10:40.590Z,100080.00
2019-02-09T21:13:11.800Z,100072.14
2019-02-09T21:15:43.506Z,100072.14
2019-02-09T21:18:14.348Z,100077.84
2019-02-09T21:20:46.003Z,100077.84
2019-02-09T21:23:17.543Z,100073.27
2019-02-09T21:25:49.090Z,100070.44
2019-02-09T21:28:20.557Z,100058.34
2019-02-09T21:30:52.077Z,100053.58
2019-02-09T21:33:23.543Z,100057.44
2019-02-09T21:35:54.967Z,100063.29
2019-02-09T21:38:44.758Z,100065.08
2019-02-09T21:41:16.346Z,100058.11
2019-02-09T21:43:47.794Z,100056.14
2019-02-09T21:46:19.854Z,100052.62
2019-02-09T21:49:09.522Z,100046.09
2019-02-09T21:51:41.428Z,100036.41
2019-02-09T21:54:13.558Z,100036.41
2019-02-09T21:56:45.098Z,100034.83
2019-02-09T21:59:34.789Z,100036.84
2019-02-09T22:02:06.485Z,100031.05
2019-02-09T22:04:38.352Z,100041.53
2019-02-09T22:07:10.079Z,100041.53
2019-02-09T22:10:00.276Z,100042.23
2019-02-09T22:12:31.866Z,100042.23
2019-02-09T22:15:03.510Z,100043.70
2019-02-09T22:17:35.022Z,100043.70
2019-02-09T22:20:09.030Z,100042.11
2019-02-09T22:22:40.589Z,100045.56
2019-02-09T22:25:15.496Z,100037.62
2019-02-09T22:27:47.813Z,100048.50
2019-02-09T22:30:21.595Z,100036.20
2019-02-09T22:32:53.344Z,100028.41
2019-02-09T22:35:25.029Z,100040.23
2019-02-09T22:37:56.975Z,100040.23
2019-02-09T22:40:30.485Z,100035.13
2019-02-09T22:43:02.101Z,100035.13
2019-02-09T22:45:33.403Z,100032.00
2019-02-09T22:48:05.059Z,100037.31
2019-02-09T22:50:38.776Z,100042.87
2019-02-09T22:53:10.570Z,100051.33
2019-02-09T22:55:42.074Z,100051.14
2019-02-09T22:58:13.694Z,100051.14
2019-02-09T23:01:25.866Z,100058.38
2019-02-09T23:04:36.371Z,100058.38
2019-02-09T23:07:36.462Z,100051.89
2019-02-09T23:10:13.540Z,100056.69
2019-02-09T23:12:48.622Z,100058.63
2019-02-09T23:15:18.403Z,100058.63
2019-02-09T23:17:50.318Z,100054.81
2019-02-09T23:20:21.631Z,100058.32
2019-02-09T23:22:52.983Z,100055.93
2019-02-09T23:25:24.468Z,100055.93
2019-02-09T23:27:55.914Z,100067.02
2019-02-09T23:30:27.683Z,100074.47
2019-02-09T23:33:00.300Z,100074.47
2019-02-09T23:35:32.117Z,100070.34
2019-02-09T23:38:03.731Z,100075.88
2019-02-09T23:40:36.554Z,100075.88
2019-02-09T23:43:08.641Z,100084.37
2019-02-09T23:45:39.821Z,100089.48
2019-02-09T23:48:11.865Z,100087.16
2019-02-09T23:50:43.326Z,100090.30
2019-02-09T23:53:14.996Z,100092.00
2019-02-09T23:55:46.617Z,100092.00
2019-02-09T23:58:18.475Z,100097.17
